Terminal Aerodrome Forecast
Issued by NWS Springfield, MO

Home | Current Version | Previous Version | Text Only | Print | Product List | Glossary On
Versions: 1 2 3 4 5 6 7 8 9 10 11 12 13 14 15 16 17 18 19 20 21 22 23 24 25 26 27 28
000
FTUS43 KSGF 072300
TAFSGF
TAF
KSGF 072320Z 0800/0824 01006KT 2SM -RA BR OVC003
      TEMPO 0800/0804 1SM BR
     FM080800 12007KT 2SM -SHRA BR OVC007
      TEMPO 0811/0815 1SM SHRA BR OVC003
     FM081700 21012KT 4SM -SHRA BR BKN007 OVC015=

USA.gov is the U.S. government's official web portal to all federal, state and local government web resources and services.